TimeCDT,TemperatureF,Dew PointF,Humidity,Sea Level PressureIn,VisibilityMPH,Wind Direction,Wind SpeedMPH,Gust SpeedMPH,PrecipitationIn,Events,Conditions,WindDirDegrees,DateUTC
12:55 AM,45.9,38.3,75,30.18,10.0,Variable,3.5,-,N/A,,Clear,0,2012-04-09 05:55:00
1:55 AM,46.9,37.4,69,30.18,10.0,Calm,Calm,-,N/A,,Mostly Cloudy,0,2012-04-09 06:55:00
2:55 AM,47.3,37.8,69,30.16,10.0,WSW,3.5,-,N/A,,Partly Cloudy,240,2012-04-09 07:55:00
3:55 AM,44.6,38.8,80,30.15,10.0,Calm,Calm,-,N/A,,Clear,0,2012-04-09 08:55:00
4:55 AM,43.0,37.8,82,30.15,10.0,West,3.5,-,N/A,,Clear,260,2012-04-09 09:55:00
5:55 AM,42.1,38.3,86,30.15,10.0,SSW,3.5,-,N/A,,Clear,210,2012-04-09 10:55:00
6:55 AM,41.9,38.1,86,30.18,10.0,Calm,Calm,-,N/A,,Clear,0,2012-04-09 11:55:00
7:55 AM,48.7,39.6,71,30.20,10.0,WNW,3.5,-,N/A,,Clear,300,2012-04-09 12:55:00
8:55 AM,53.2,41.2,64,30.21,10.0,NNW,8.1,-,N/A,,Clear,330,2012-04-09 13:55:00
9:55 AM,59.9,33.3,37,30.21,10.0,NNE,5.8,-,N/A,,Clear,20,2012-04-09 14:55:00
10:55 AM,63.7,31.1,29,30.19,10.0,Variable,3.5,-,N/A,,Clear,0,2012-04-09 15:55:00
11:55 AM,66.7,25.7,21,30.19,10.0,NNE,8.1,-,N/A,,Clear,20,2012-04-09 16:55:00
12:55 PM,68.4,29.8,24,30.17,10.0,Variable,5.8,-,N/A,,Clear,0,2012-04-09 17:55:00
1:55 PM,70.0,29.8,23,30.15,10.0,SW,6.9,-,N/A,,Clear,220,2012-04-09 18:55:00
2:55 PM,70.5,29.1,21,30.13,10.0,Variable,6.9,-,N/A,,Clear,0,2012-04-09 19:55:00
3:55 PM,72.1,31.5,22,30.10,10.0,NW,6.9,-,N/A,,Clear,310,2012-04-09 20:55:00
4:55 PM,72.1,32.4,23,30.09,8.0,Variable,5.8,-,N/A,,Clear,0,2012-04-09 21:55:00
5:46 PM,69.8,35.6,28,30.08,2.5,North,6.9,-,N/A,,Haze,350,2012-04-09 22:46:00
5:55 PM,69.4,36.0,29,30.19,10.0,Variable,3.5,-,N/A,,Haze,0,2012-04-09 22:55:00
6:05 PM,69.8,33.8,27,30.07,3.0,Calm,Calm,-,N/A,,Haze,0,2012-04-09 23:05:00
7:55 PM,64.2,35.2,34,30.06,10.0,Calm,Calm,-,N/A,,Partly Cloudy,0,2012-04-10 00:55:00
8:55 PM,60.3,36.0,40,30.09,10.0,Calm,Calm,-,N/A,,Partly Cloudy,0,2012-04-10 01:55:00
9:55 PM,59.0,35.6,42,30.09,10.0,NNE,3.5,-,N/A,,Clear,20,2012-04-10 02:55:00
10:55 PM,59.7,35.4,40,30.08,10.0,NNE,3.5,-,N/A,,Overcast,30,2012-04-10 03:55:00
11:55 PM,57.7,40.1,52,30.08,10.0,North,3.5,-,N/A,,Overcast,350,2012-04-10 04:55:00